createdAt,value
2023-09-29T00:02:26.003Z,99861.53
2023-09-29T00:05:16.239Z,99868.66
2023-09-29T00:08:04.416Z,99867.84
2023-09-29T00:10:52.417Z,99867.88
2023-09-29T00:13:40.389Z,99862.13
2023-09-29T00:16:29.662Z,99847.91
2023-09-29T00:19:17.348Z,99826.28
2023-09-29T00:22:05.913Z,99856.06
2023-09-29T00:24:54.457Z,99861.34
2023-09-29T00:27:42.237Z,99853.19
2023-09-29T00:30:30.146Z,99855.41
2023-09-29T00:33:19.376Z,99855.59
2023-09-29T00:36:08.126Z,99861.59
2023-09-29T00:38:56.074Z,99859.31
2023-09-29T00:41:44.175Z,99860.38
2023-09-29T00:44:31.868Z,99866.13
2023-09-29T00:47:21.335Z,99863.72
2023-09-29T00:50:13.412Z,99850.78
2023-09-29T00:53:07.153Z,99862.38
2023-09-29T00:55:55.251Z,99864.00
2023-09-29T00:58:43.457Z,99856.91
2023-09-29T01:01:31.398Z,99856.63
2023-09-29T01:04:19.771Z,99856.47
2023-09-29T01:07:09.936Z,99808.75
2023-09-29T01:09:58.185Z,99853.91
2023-09-29T01:12:46.016Z,99856.25
2023-09-29T01:15:35.244Z,99859.84
2023-09-29T01:18:24.289Z,99860.31
2023-09-29T01:21:12.459Z,99850.88
2023-09-29T01:24:01.861Z,99853.06
2023-09-29T01:26:50.329Z,99851.56
2023-09-29T01:29:38.277Z,99848.91
2023-09-29T01:32:26.324Z,99845.31
2023-09-29T01:35:16.253Z,99848.44
2023-09-29T01:38:04.129Z,99847.47
2023-09-29T01:40:53.236Z,99850.66
2023-09-29T01:43:41.137Z,99854.06
2023-09-29T01:46:30.595Z,99847.59
2023-09-29T01:49:18.514Z,99840.84
2023-09-29T01:52:06.382Z,99846.81
2023-09-29T01:54:56.685Z,99836.00
2023-09-29T01:57:46.054Z,99846.34
2023-09-29T02:00:33.984Z,99848.84
2023-09-29T02:03:22.423Z,99847.47
2023-09-29T02:06:10.176Z,99851.81
2023-09-29T02:08:58.861Z,99847.66
2023-09-29T02:11:47.350Z,99846.19
2023-09-29T02:14:36.386Z,99855.09
2023-09-29T02:17:24.677Z,99853.31
2023-09-29T02:20:16.359Z,99841.69
2023-09-29T02:23:07.020Z,99844.28
2023-09-29T02:25:54.776Z,99837.44
2023-09-29T02:28:42.721Z,99844.84
2023-09-29T02:31:33.013Z,99839.28
2023-09-29T02:34:20.831Z,99836.94
2023-09-29T02:37:08.769Z,99836.56
2023-09-29T02:39:57.063Z,99837.78
2023-09-29T02:42:45.684Z,99838.22
2023-09-29T02:45:33.458Z,99827.66
2023-09-29T02:48:23.096Z,99840.44
2023-09-29T02:51:18.314Z,99843.63
2023-09-29T02:54:06.404Z,99842.47
2023-09-29T02:56:54.162Z,99844.00
2023-09-29T02:59:42.091Z,99836.19
2023-09-29T03:02:29.907Z,99839.19
2023-09-29T03:05:22.510Z,99841.03
2023-09-29T03:08:10.530Z,99804.88
2023-09-29T03:10:58.291Z,99823.69
2023-09-29T03:13:46.196Z,99749.69
2023-09-29T03:16:33.890Z,99840.03
2023-09-29T03:19:21.911Z,99837.16
2023-09-29T03:22:14.100Z,99833.97
2023-09-29T03:25:02.121Z,99837.88
2023-09-29T03:27:49.860Z,99832.28
2023-09-29T03:30:37.780Z,99829.63
2023-09-29T03:33:25.678Z,99829.59
2023-09-29T03:36:13.818Z,99830.66
2023-09-29T03:39:06.514Z,99829.75
2023-09-29T03:41:55.738Z,99829.41
2023-09-29T03:44:45.359Z,99827.25
2023-09-29T03:47:34.182Z,99833.47
2023-09-29T03:50:21.885Z,99825.09
2023-09-29T03:53:10.027Z,99828.78
2023-09-29T03:55:59.104Z,99829.09
2023-09-29T03:58:47.113Z,99824.19
2023-09-29T04:01:35.521Z,99829.75
2023-09-29T04:04:23.620Z,99824.22
2023-09-29T04:07:11.491Z,99823.03
2023-09-29T04:09:59.224Z,99821.16
2023-09-29T04:12:48.360Z,99820.38
2023-09-29T04:15:36.675Z,99818.34
2023-09-29T04:18:24.648Z,99814.94
2023-09-29T04:21:14.208Z,99817.44
2023-09-29T04:24:01.943Z,99815.06
2023-09-29T04:26:49.694Z,99821.84
2023-09-29T04:29:38.749Z,99815.25
2023-09-29T04:32:26.505Z,99818.53
2023-09-29T04:35:14.314Z,99821.91
2023-09-29T04:38:03.199Z,99825.56
2023-09-29T04:40:50.966Z,99822.22
2023-09-29T04:43:38.976Z,99732.63
2023-09-29T04:46:28.183Z,99819.75
2023-09-29T04:49:15.964Z,99812.22
2023-09-29T04:52:04.550Z,99825.78
2023-09-29T04:54:52.259Z,99823.22
2023-09-29T04:57:40.086Z,99825.44
2023-09-29T05:00:28.686Z,99825.78
2023-09-29T05:03:18.118Z,99810.13
2023-09-29T05:06:06.002Z,99830.06
2023-09-29T05:08:54.010Z,99831.19
2023-09-29T05:11:41.868Z,99831.94
2023-09-29T05:14:29.842Z,99839.47
2023-09-29T05:17:17.693Z,99836.13
2023-09-29T05:20:08.284Z,99842.56
2023-09-29T05:22:56.263Z,99836.94
2023-09-29T05:25:47.955Z,99840.84
2023-09-29T05:28:36.351Z,99843.75
2023-09-29T05:31:24.450Z,99835.63
2023-09-29T05:34:12.205Z,99845.97
2023-09-29T05:37:01.610Z,99850.00
2023-09-29T05:39:49.356Z,99851.91
2023-09-29T05:42:49.293Z,99852.59
2023-09-29T05:45:40.257Z,99849.06
2023-09-29T05:48:28.056Z,99776.06
2023-09-29T05:51:15.962Z,99856.16
2023-09-29T05:54:05.440Z,99856.88
2023-09-29T05:56:53.217Z,99856.88
2023-09-29T05:59:41.090Z,99863.78
2023-09-29T06:02:29.290Z,99860.81
2023-09-29T06:05:17.195Z,99865.31
2023-09-29T06:08:05.184Z,99865.66
2023-09-29T06:10:54.535Z,99873.66
2023-09-29T06:13:43.349Z,99866.03
2023-09-29T06:16:31.167Z,99875.28
2023-09-29T06:19:18.924Z,99876.63
2023-09-29T06:22:06.854Z,99877.69
2023-09-29T06:24:54.771Z,99880.69
2023-09-29T06:27:43.885Z,99880.69
2023-09-29T06:30:31.941Z,99883.72
2023-09-29T06:33:19.761Z,99884.78
2023-09-29T06:36:07.871Z,99885.66
2023-09-29T06:38:55.623Z,99885.75
2023-09-29T06:41:43.486Z,99881.75
2023-09-29T06:44:33.951Z,99892.97
2023-09-29T06:47:21.666Z,99893.59
2023-09-29T06:50:11.957Z,99896.75
2023-09-29T06:52:59.798Z,99898.28
2023-09-29T06:55:47.583Z,99894.91
2023-09-29T06:58:35.307Z,99886.34
2023-09-29T07:01:24.416Z,99899.53
2023-09-29T07:04:12.419Z,99894.66
2023-09-29T07:07:00.340Z,99895.50
2023-09-29T07:09:48.239Z,99805.25
2023-09-29T07:12:35.888Z,99879.69
2023-09-29T07:15:24.796Z,99856.56
2023-09-29T07:18:15.284Z,99848.91
2023-09-29T07:21:03.412Z,99901.63
2023-09-29T07:23:51.212Z,99891.34
2023-09-29T07:26:39.774Z,99895.41
2023-09-29T07:29:27.835Z,99885.72
2023-09-29T07:32:16.698Z,99888.53
2023-09-29T07:35:08.650Z,99900.53
2023-09-29T07:37:56.393Z,99906.81
2023-09-29T07:40:44.611Z,99910.31
2023-09-29T07:43:32.415Z,99912.81
2023-09-29T07:46:20.212Z,99904.44
2023-09-29T07:49:08.522Z,99913.09
2023-09-29T07:51:58.353Z,99922.13
2023-09-29T07:54:46.166Z,99923.41
2023-09-29T07:57:34.008Z,99915.03
2023-09-29T08:00:21.936Z,99925.63
2023-09-29T08:03:09.881Z,99920.59
2023-09-29T08:05:57.802Z,99927.72
2023-09-29T08:08:49.127Z,99924.13
2023-09-29T08:11:37.930Z,99928.19
2023-09-29T08:14:25.661Z,99933.41
2023-09-29T08:17:13.475Z,99926.94
2023-09-29T08:20:01.512Z,99933.25
2023-09-29T08:22:51.127Z,99933.53
2023-09-29T08:25:40.726Z,99934.16
2023-09-29T08:28:28.975Z,99936.28
2023-09-29T08:31:17.204Z,99922.50
2023-09-29T08:34:05.945Z,99923.16
2023-09-29T08:36:54.140Z,99853.75
2023-09-29T08:39:41.775Z,99930.69
2023-09-29T08:42:38.074Z,99904.31
2023-09-29T08:45:29.622Z,99923.38
2023-09-29T08:48:19.396Z,99920.44
2023-09-29T08:51:07.942Z,99916.28
2023-09-29T08:53:57.736Z,99925.09
2023-09-29T08:56:47.870Z,99922.59
2023-09-29T08:59:38.319Z,99927.44
2023-09-29T09:02:26.426Z,99925.13
2023-09-29T09:05:16.176Z,99941.03
2023-09-29T09:08:04.178Z,99928.69
2023-09-29T09:10:59.350Z,99928.03
2023-09-29T09:13:59.981Z,99928.03
2023-09-29T09:16:49.246Z,99926.16
2023-09-29T09:19:45.264Z,99927.63
2023-09-29T09:22:46.030Z,99923.03
2023-09-29T09:25:37.568Z,99926.59
2023-09-29T09:28:32.140Z,99921.75
2023-09-29T09:31:19.981Z,99926.16
2023-09-29T09:34:09.559Z,99928.06
2023-09-29T09:36:57.705Z,99936.84
2023-09-29T09:39:46.912Z,99929.31
2023-09-29T09:42:35.597Z,99932.44
2023-09-29T09:45:27.110Z,99926.78
2023-09-29T09:48:17.167Z,99918.84
2023-09-29T09:51:08.714Z,99927.56
2023-09-29T09:53:59.968Z,99915.84
2023-09-29T09:56:56.930Z,99907.91
2023-09-29T09:59:45.506Z,99929.22
2023-09-29T10:02:34.636Z,99921.69
2023-09-29T10:05:25.024Z,99920.44
2023-09-29T10:08:25.623Z,99914.16
2023-09-29T10:11:14.935Z,99912.41
2023-09-29T10:14:05.190Z,99911.53
2023-09-29T10:17:03.758Z,99908.28
2023-09-29T10:19:56.217Z,99900.47
2023-09-29T10:22:44.784Z,99831.81
2023-09-29T10:25:35.064Z,99895.63
2023-09-29T10:28:32.554Z,99891.69
2023-09-29T10:31:29.056Z,99890.75
2023-09-29T10:34:27.433Z,99887.19
2023-09-29T10:37:16.070Z,99885.69
2023-09-29T10:40:23.536Z,99879.03
2023-09-29T10:43:12.500Z,99872.88
2023-09-29T10:46:08.706Z,99860.66
2023-09-29T10:48:56.916Z,99865.66
2023-09-29T10:51:44.725Z,99861.56
2023-09-29T10:54:32.444Z,99856.84
2023-09-29T10:57:22.735Z,99861.06
2023-09-29T11:00:12.285Z,99865.28
2023-09-29T11:03:00.646Z,99869.78
2023-09-29T11:05:53.059Z,99844.00
2023-09-29T11:08:44.389Z,99843.03
2023-09-29T11:11:36.236Z,99856.66
2023-09-29T11:14:27.644Z,99856.22
2023-09-29T11:17:15.501Z,99844.97
2023-09-29T11:20:08.395Z,99852.91
2023-09-29T11:23:08.197Z,99841.75
2023-09-29T11:25:59.826Z,99822.91
2023-09-29T11:28:49.805Z,99831.56
2023-09-29T11:31:39.960Z,99844.81
2023-09-29T11:34:30.669Z,99834.69
2023-09-29T11:37:20.160Z,99835.94
2023-09-29T11:40:12.679Z,99840.16
2023-09-29T11:43:00.452Z,99824.59
2023-09-29T11:45:48.389Z,99813.16
2023-09-29T11:48:38.333Z,99822.13
2023-09-29T11:51:27.321Z,99829.88
2023-09-29T11:54:15.854Z,99806.34
2023-09-29T11:57:03.951Z,99828.47
2023-09-29T11:59:54.025Z,99822.13
2023-09-29T12:02:43.323Z,99828.84
2023-09-29T12:05:32.536Z,99814.97
2023-09-29T12:08:20.853Z,99810.09
2023-09-29T12:11:09.045Z,99820.16
2023-09-29T12:13:57.169Z,99825.00
2023-09-29T12:16:46.068Z,99817.94
2023-09-29T12:19:34.227Z,99825.28
2023-09-29T12:22:23.452Z,99808.56
2023-09-29T12:25:12.893Z,99805.81
2023-09-29T12:28:01.155Z,99765.44
2023-09-29T12:30:48.954Z,99798.84
2023-09-29T12:33:36.852Z,99791.22
2023-09-29T12:36:24.742Z,99796.09
2023-09-29T12:39:14.543Z,99785.38
2023-09-29T12:42:02.453Z,99785.19
2023-09-29T12:44:50.612Z,99774.06
2023-09-29T12:47:38.557Z,99782.41
2023-09-29T12:50:26.854Z,99777.47
2023-09-29T12:53:14.605Z,99777.69
2023-09-29T12:56:03.712Z,99769.50
2023-09-29T12:58:51.684Z,99764.06
2023-09-29T13:01:40.789Z,99767.69
2023-09-29T13:04:30.641Z,99763.13
2023-09-29T13:07:18.713Z,99747.25
2023-09-29T13:10:08.489Z,99754.97
2023-09-29T13:12:57.780Z,99733.59
2023-09-29T13:15:45.920Z,99755.13
2023-09-29T13:18:34.135Z,99754.69
2023-09-29T13:21:22.079Z,99756.78
2023-09-29T13:24:11.731Z,99751.28
2023-09-29T13:26:59.855Z,99736.34
2023-09-29T13:29:51.906Z,99733.53
2023-09-29T13:32:40.088Z,99739.53
2023-09-29T13:35:29.730Z,99753.31
2023-09-29T13:38:18.907Z,99745.81
2023-09-29T13:41:07.317Z,99747.50
2023-09-29T13:43:55.281Z,99744.44
2023-09-29T13:47:00.623Z,99721.03
2023-09-29T13:49:51.669Z,99740.88
2023-09-29T13:52:39.593Z,99745.28
2023-09-29T13:55:27.941Z,99738.63
2023-09-29T13:58:15.705Z,99737.41
2023-09-29T14:01:03.556Z,99741.41
2023-09-29T14:03:57.511Z,99748.44
2023-09-29T14:06:45.620Z,99750.88
2023-09-29T14:09:33.629Z,99740.03
2023-09-29T14:12:21.406Z,99738.38
2023-09-29T14:15:10.801Z,99737.63
2023-09-29T14:17:59.651Z,99746.19
2023-09-29T14:20:48.968Z,99742.09
2023-09-29T14:23:37.024Z,99749.59
2023-09-29T14:26:24.717Z,99722.91
2023-09-29T14:29:12.747Z,99749.06
2023-09-29T14:32:00.457Z,99748.91
2023-09-29T14:34:48.561Z,99743.22
2023-09-29T14:37:37.904Z,99756.94
2023-09-29T14:40:25.566Z,99745.19
2023-09-29T14:43:13.917Z,99750.41
2023-09-29T14:46:05.531Z,99751.50
2023-09-29T14:48:54.212Z,99752.31
2023-09-29T14:51:41.979Z,99757.44
2023-09-29T14:54:31.149Z,99753.91
2023-09-29T14:57:19.490Z,99757.47
2023-09-29T15:00:08.196Z,99758.31
2023-09-29T15:02:56.175Z,99754.97
2023-09-29T15:05:44.025Z,99758.41
2023-09-29T15:08:32.103Z,99764.03
2023-09-29T15:11:22.378Z,99769.31
2023-09-29T15:14:10.164Z,99762.22
2023-09-29T15:16:57.983Z,99768.69
2023-09-29T15:19:45.791Z,99771.44
2023-09-29T15:22:33.713Z,99773.16
2023-09-29T15:25:21.374Z,99772.00
2023-09-29T15:28:11.398Z,99774.72
2023-09-29T15:31:00.793Z,99777.47
2023-09-29T15:33:48.626Z,99787.94
2023-09-29T15:36:36.966Z,99779.16
2023-09-29T15:39:24.792Z,99782.34
2023-09-29T15:42:12.661Z,99780.00
2023-09-29T15:45:02.193Z,99782.13
2023-09-29T15:47:50.205Z,99781.13
2023-09-29T15:50:38.524Z,99786.78
2023-09-29T15:53:26.399Z,99786.78
2023-09-29T15:56:14.141Z,99790.16
2023-09-29T15:59:02.363Z,99786.44
2023-09-29T16:01:51.516Z,99791.84
2023-09-29T16:04:39.369Z,99782.06
2023-09-29T16:07:27.260Z,99788.53
2023-09-29T16:10:19.354Z,99793.56
2023-09-29T16:13:08.087Z,99796.91
2023-09-29T16:15:57.296Z,99801.56
2023-09-29T16:18:46.807Z,99803.25
2023-09-29T16:21:35.484Z,99807.41
2023-09-29T16:24:23.203Z,99816.00
2023-09-29T16:27:11.217Z,99811.22
2023-09-29T16:30:00.377Z,99795.09
2023-09-29T16:32:48.385Z,99813.94
2023-09-29T16:35:38.990Z,99808.28
2023-09-29T16:38:26.709Z,99810.59
2023-09-29T16:41:24.978Z,99821.06
2023-09-29T16:44:12.674Z,99813.91
2023-09-29T16:47:03.397Z,99819.16
2023-09-29T16:49:51.965Z,99817.69
2023-09-29T16:52:41.112Z,99817.72
2023-09-29T16:55:29.165Z,99823.56
2023-09-29T16:58:16.882Z,99821.44
2023-09-29T17:01:06.025Z,99789.03
2023-09-29T17:03:54.229Z,99818.94
2023-09-29T17:06:43.395Z,99809.72
2023-09-29T17:09:32.758Z,99818.09
2023-09-29T17:12:21.446Z,99821.47
2023-09-29T17:15:12.417Z,99826.88
2023-09-29T17:18:00.598Z,99820.75
2023-09-29T17:20:48.382Z,99824.91
2023-09-29T17:23:36.376Z,99826.63
2023-09-29T17:26:25.807Z,99829.34
2023-09-29T17:29:14.328Z,99832.53
2023-09-29T17:32:02.212Z,99824.13
2023-09-29T17:34:49.953Z,99832.94
2023-09-29T17:37:38.026Z,99834.63
2023-09-29T17:40:25.868Z,99835.03
2023-09-29T17:43:15.386Z,99836.41
2023-09-29T17:46:04.341Z,99839.66
2023-09-29T17:48:52.425Z,99837.72
2023-09-29T17:51:40.303Z,99837.03
2023-09-29T17:54:28.415Z,99845.38
2023-09-29T17:57:19.574Z,99840.56
2023-09-29T18:00:10.316Z,99842.28
2023-09-29T18:02:58.521Z,99841.75
2023-09-29T18:05:46.384Z,99834.78
2023-09-29T18:08:34.468Z,99841.22
2023-09-29T18:11:22.550Z,99843.09
2023-09-29T18:14:10.410Z,99839.50
2023-09-29T18:16:59.961Z,99850.31
2023-09-29T18:19:48.422Z,99841.53
2023-09-29T18:22:36.379Z,99842.94
2023-09-29T18:25:24.235Z,99845.81
2023-09-29T18:28:12.381Z,99846.88
2023-09-29T18:31:00.391Z,99847.38
2023-09-29T18:33:49.978Z,99834.75
2023-09-29T18:36:41.046Z,99846.72
2023-09-29T18:39:29.165Z,99846.00
2023-09-29T18:42:17.523Z,99836.91
2023-09-29T18:45:06.707Z,99849.13
2023-09-29T18:47:55.298Z,99850.03
2023-09-29T18:50:45.805Z,99850.84
2023-09-29T18:53:34.542Z,99857.19
2023-09-29T18:56:22.617Z,99844.00
2023-09-29T18:59:12.676Z,99850.25
2023-09-29T19:02:02.383Z,99849.84
2023-09-29T19:04:50.891Z,99841.66
2023-09-29T19:07:40.307Z,99844.81
2023-09-29T19:10:28.927Z,99839.53
2023-09-29T19:13:16.895Z,99843.69
2023-09-29T19:16:07.331Z,99843.22
2023-09-29T19:18:57.416Z,99838.81
2023-09-29T19:21:45.965Z,99838.16
2023-09-29T19:24:35.484Z,99844.81
2023-09-29T19:27:24.660Z,99844.53
2023-09-29T19:30:13.710Z,99852.16
2023-09-29T19:33:01.541Z,99847.91
2023-09-29T19:35:49.804Z,99849.94
2023-09-29T19:38:37.500Z,99843.22
2023-09-29T19:41:28.821Z,99853.31
2023-09-29T19:44:16.767Z,99851.34
2023-09-29T19:47:04.859Z,99844.63
2023-09-29T19:49:53.445Z,99844.72
2023-09-29T19:52:41.568Z,99849.38
2023-09-29T19:55:30.171Z,99844.53
2023-09-29T19:58:19.380Z,99848.56
2023-09-29T20:01:08.440Z,99846.41
2023-09-29T20:03:56.738Z,99849.13
2023-09-29T20:06:44.785Z,99857.63
2023-09-29T20:09:33.056Z,99855.28
2023-09-29T20:12:20.902Z,99850.97
2023-09-29T20:15:11.518Z,99856.84
2023-09-29T20:17:59.415Z,99849.56
2023-09-29T20:20:47.895Z,99846.03
2023-09-29T20:23:35.823Z,99847.25
2023-09-29T20:26:24.558Z,99855.28
2023-09-29T20:29:12.468Z,99849.84
2023-09-29T20:32:03.537Z,99850.13
2023-09-29T20:34:51.294Z,99847.81
2023-09-29T20:37:38.955Z,99853.97
2023-09-29T20:40:26.709Z,99852.84
2023-09-29T20:43:14.962Z,99850.03
2023-09-29T20:46:02.676Z,99854.91
2023-09-29T20:48:52.132Z,99855.44
2023-09-29T20:51:40.679Z,99857.13
2023-09-29T20:54:28.695Z,99855.81
2023-09-29T20:57:16.656Z,99852.72
2023-09-29T21:00:04.584Z,99850.59
2023-09-29T21:02:52.936Z,99833.97
2023-09-29T21:05:41.994Z,99856.38
2023-09-29T21:08:29.912Z,99856.00
2023-09-29T21:11:17.594Z,99851.44
2023-09-29T21:14:06.036Z,99852.66
2023-09-29T21:16:54.432Z,99852.66
2023-09-29T21:19:42.187Z,99852.63
2023-09-29T21:22:31.302Z,99850.25
2023-09-29T21:25:19.282Z,99854.72
2023-09-29T21:28:07.252Z,99856.22
2023-09-29T21:30:55.328Z,99863.28
2023-09-29T21:33:43.657Z,99865.25
2023-09-29T21:36:31.433Z,99864.50
2023-09-29T21:39:20.778Z,99860.22
2023-09-29T21:42:08.630Z,99866.56
2023-09-29T21:44:56.300Z,99866.44
2023-09-29T21:47:43.984Z,99859.84
2023-09-29T21:50:31.814Z,99871.13
2023-09-29T21:53:19.641Z,99860.97
2023-09-29T21:56:08.896Z,99869.72
2023-09-29T21:58:57.477Z,99861.22
2023-09-29T22:01:45.109Z,99860.53
2023-09-29T22:04:32.940Z,99860.63
2023-09-29T22:07:20.916Z,99857.31
2023-09-29T22:10:10.192Z,99858.56
2023-09-29T22:12:59.339Z,99850.06
2023-09-29T22:15:47.128Z,99849.72
2023-09-29T22:18:35.730Z,99854.91
2023-09-29T22:21:23.695Z,99842.78
2023-09-29T22:24:12.415Z,99847.97
2023-09-29T22:27:00.262Z,99845.69
2023-09-29T22:29:49.401Z,99842.91
2023-09-29T22:32:37.111Z,99849.22
2023-09-29T22:35:24.969Z,99851.56
2023-09-29T22:38:13.374Z,99851.66
2023-09-29T22:41:01.917Z,99844.88
2023-09-29T22:43:50.054Z,99846.94
2023-09-29T22:46:39.024Z,99848.38
2023-09-29T22:49:27.212Z,99848.97
2023-09-29T22:52:15.074Z,99861.97
2023-09-29T22:55:02.841Z,99850.91
2023-09-29T22:57:50.707Z,99848.13
2023-09-29T23:00:38.601Z,99855.88
2023-09-29T23:03:30.606Z,99847.19
2023-09-29T23:06:18.488Z,99852.97
2023-09-29T23:09:07.239Z,99850.34
2023-09-29T23:11:57.384Z,99840.03
2023-09-29T23:14:46.244Z,99842.84
2023-09-29T23:17:34.552Z,99850.53
2023-09-29T23:20:23.964Z,99839.00
2023-09-29T23:23:11.928Z,99845.69
2023-09-29T23:25:59.981Z,99846.63
2023-09-29T23:28:47.934Z,99843.66
2023-09-29T23:31:35.787Z,99831.78
2023-09-29T23:34:24.106Z,99831.06
2023-09-29T23:37:13.425Z,99833.41
2023-09-29T23:40:01.504Z,99835.88
2023-09-29T23:42:49.570Z,99810.78
2023-09-29T23:45:37.351Z,99836.38
2023-09-29T23:48:25.222Z,99826.84
2023-09-29T23:51:13.210Z,99824.84
2023-09-29T23:54:02.915Z,99827.34
2023-09-29T23:56:50.813Z,99825.78
2023-09-29T23:59:38.529Z,99828.75
